Time;durP1;ratioP1;P1;durP2;ratioP2;P2;SDS_P1;SDS_P2;PMS_P1;PMS_P2;Temp;Humidity;BMP_temperature;BMP_pressure;BME280_temperature;BME280_humidity;BME280_pressure;Samples;Min_cycle;Max_cycle;Signal;HPM_P1;HPM_P2
2024/03/27 00:01:10;;;;;;;4.10;2.80;;;12.30;1.00;;;;;;5032268;28;20197;-71
2024/03/27 00:03:39;;;;;;;3.23;2.73;;;12.20;1.00;;;;;;5030339;28;20266;-71
2024/03/27 00:06:04;;;;;;;5.67;2.57;;;12.00;1.00;;;;;;5031883;28;20442;-71
2024/03/27 00:08:31;;;;;;;4.37;2.80;;;11.90;1.00;;;;;;5030781;28;20467;-72
2024/03/27 00:10:56;;;;;;;6.33;3.20;;;11.80;1.00;;;;;;5030412;28;20181;-71
2024/03/27 00:13:22;;;;;;;3.00;2.57;;;11.80;1.00;;;;;;5031833;28;20422;-71
2024/03/27 00:15:54;;;;;;;3.03;2.63;;;11.90;1.00;;;;;;5031668;28;20594;-70
2024/03/27 00:18:21;;;;;;;4.00;3.07;;;11.90;1.00;;;;;;5030050;28;20209;-70
2024/03/27 00:20:47;;;;;;;7.13;3.13;;;11.80;1.00;;;;;;5030464;28;20466;-72
2024/03/27 00:23:15;;;;;;;5.50;2.70;;;11.70;1.00;;;;;;5031716;28;20410;-72
2024/03/27 00:25:44;;;;;;;5.00;2.90;;;11.70;1.00;;;;;;5032495;28;20334;-72
2024/03/27 00:28:09;;;;;;;3.37;2.70;;;11.50;1.00;;;;;;5035080;28;20449;-72
2024/03/27 00:30:35;;;;;;;9.33;2.17;;;11.40;1.00;;;;;;5034464;28;20483;-71
2024/03/27 00:33:02;;;;;;;3.57;2.63;;;11.30;1.00;;;;;;5034676;28;20206;-73
2024/03/27 00:35:27;;;;;;;4.30;2.30;;;11.30;1.00;;;;;;5034452;28;20302;-72
2024/03/27 00:37:53;;;;;;;4.83;2.03;;;11.30;1.00;;;;;;5034718;28;20461;-72
2024/03/27 00:40:22;;;;;;;4.30;2.50;;;11.30;1.00;;;;;;5036407;28;20171;-72
2024/03/27 00:42:48;;;;;;;3.87;3.03;;;11.30;1.00;;;;;;5034844;28;20183;-73
2024/03/27 00:45:13;;;;;;;3.90;2.50;;;11.20;1.00;;;;;;5035810;28;20418;-72
2024/03/27 00:47:40;;;;;;;3.70;2.80;;;11.20;1.00;;;;;;5034558;28;20230;-71
2024/03/27 00:50:05;;;;;;;3.80;2.97;;;11.10;1.00;;;;;;5035625;28;20262;-70
2024/03/27 00:52:32;;;;;;;4.33;3.10;;;11.10;1.00;;;;;;5035565;28;21507;-70
2024/03/27 00:54:57;;;;;;;3.90;2.70;;;10.90;1.00;;;;;;5035508;28;20254;-72
2024/03/27 00:57:23;;;;;;;3.33;2.70;;;10.70;1.00;;;;;;5034151;28;20453;-72
2024/03/27 00:59:49;;;;;;;5.77;2.73;;;10.60;1.00;;;;;;5034688;28;20177;-72
2024/03/27 01:02:14;;;;;;;3.73;2.50;;;10.50;1.00;;;;;;5033137;28;20879;-72
2024/03/27 01:04:40;;;;;;;2.87;2.30;;;10.40;1.00;;;;;;5034635;28;20228;-71
2024/03/27 01:07:05;;;;;;;4.20;2.90;;;10.20;1.00;;;;;;5034384;28;20264;-71
2024/03/27 01:09:31;;;;;;;9.37;2.63;;;10.30;1.00;;;;;;5034232;28;20175;-72
2024/03/27 01:11:56;;;;;;;5.20;2.87;;;10.00;1.00;;;;;;5034750;28;20246;-71
2024/03/27 01:14:22;;;;;;;4.60;2.53;;;10.00;1.00;;;;;;5034198;28;20199;-72
2024/03/27 01:16:47;;;;;;;4.00;2.50;;;9.90;1.00;;;;;;5034092;28;20195;-72
2024/03/27 01:19:13;;;;;;;4.27;2.13;;;9.90;1.00;;;;;;5033221;28;20186;-72
2024/03/27 01:21:38;;;;;;;2.80;2.37;;;9.70;1.00;;;;;;5034644;28;20171;-71
2024/03/27 01:24:04;;;;;;;6.60;1.70;;;9.60;1.00;;;;;;5033179;28;20545;-72
2024/03/27 01:26:29;;;;;;;3.63;2.17;;;9.40;1.00;;;;;;5033277;28;20575;-73
2024/03/27 01:28:55;;;;;;;2.70;1.80;;;9.40;1.00;;;;;;5034039;28;20273;-72
2024/03/27 01:31:20;;;;;;;3.50;1.63;;;9.30;1.00;;;;;;5033431;28;20218;-72
2024/03/27 01:33:47;;;;;;;2.60;1.57;;;9.30;1.00;;;;;;5033528;28;20265;-72
2024/03/27 01:36:13;;;;;;;2.40;1.70;;;9.20;1.00;;;;;;5034063;28;20206;-72
2024/03/27 01:38:38;;;;;;;6.50;1.90;;;9.10;1.00;;;;;;5034160;28;20419;-72
2024/03/27 01:41:04;;;;;;;3.20;1.83;;;9.00;1.00;;;;;;5033075;28;20441;-71
2024/03/27 01:43:30;;;;;;;4.03;1.83;;;8.90;1.00;;;;;;5032762;28;20190;-72
2024/03/27 01:45:56;;;;;;;3.53;2.03;;;8.90;1.00;;;;;;5034006;28;20186;-72
2024/03/27 01:48:21;;;;;;;3.77;2.07;;;8.80;1.00;;;;;;5032631;28;20229;-73
2024/03/27 01:50:47;;;;;;;3.27;1.80;;;8.80;1.00;;;;;;5033833;28;20931;-72
2024/03/27 01:53:15;;;;;;;3.83;1.93;;;8.80;1.00;;;;;;5034324;28;20196;-72
2024/03/27 01:55:41;;;;;;;3.20;2.03;;;8.80;1.00;;;;;;5033559;28;20251;-72
2024/03/27 01:58:07;;;;;;;3.77;2.07;;;8.80;1.00;;;;;;5031961;28;20446;-73
2024/03/27 02:00:34;;;;;;;5.10;2.30;;;8.70;1.00;;;;;;5034033;28;20421;-71
2024/03/27 02:02:59;;;;;;;3.23;2.63;;;8.60;1.00;;;;;;5035778;28;20841;-72
2024/03/27 02:05:25;;;;;;;3.07;2.10;;;8.60;1.00;;;;;;5048432;28;20419;-72
2024/03/27 02:07:51;;;;;;;3.27;1.63;;;8.50;1.00;;;;;;5051567;28;20217;-73
2024/03/27 02:10:16;;;;;;;5.93;2.27;;;8.50;1.00;;;;;;5054522;28;20408;-72
2024/03/27 02:12:42;;;;;;;5.83;2.37;;;8.40;1.00;;;;;;5039884;28;20186;-71
2024/03/27 02:15:08;;;;;;;4.20;1.93;;;8.50;1.00;;;;;;5034442;28;20215;-71
2024/03/27 02:17:34;;;;;;;4.40;2.87;;;8.40;1.00;;;;;;5033660;28;20198;-70
2024/03/27 02:19:59;;;;;;;6.17;2.20;;;8.40;1.00;;;;;;5033559;28;20903;-71
2024/03/27 02:22:26;;;;;;;4.60;3.00;;;8.40;1.00;;;;;;5031948;28;20177;-71
2024/03/27 02:24:57;;;;;;;4.30;2.20;;;8.40;1.00;;;;;;5033163;28;20554;-70
2024/03/27 02:27:25;;;;;;;3.53;2.30;;;;;;;;;;5032517;28;20438;-70
2024/03/27 02:29:51;;;;;;;5.30;1.97;;;8.20;1.00;;;;;;5032920;28;20509;-70
2024/03/27 02:32:17;;;;;;;3.57;2.27;;;8.10;1.00;;;;;;5033099;28;20415;-71
2024/03/27 02:34:42;;;;;;;7.73;1.70;;;8.10;1.00;;;;;;5032721;28;20558;-71
2024/03/27 02:37:08;;;;;;;4.23;2.80;;;8.00;1.00;;;;;;5031502;28;20201;-70
2024/03/27 02:39:34;;;;;;;3.57;2.07;;;8.00;1.00;;;;;;5032538;28;20185;-71
2024/03/27 02:42:00;;;;;;;4.00;1.60;;;7.90;1.00;;;;;;5031187;28;20177;-71
2024/03/27 02:44:25;;;;;;;2.50;1.40;;;7.90;1.00;;;;;;5031437;28;20548;-71
2024/03/27 02:46:51;;;;;;;2.10;1.30;;;7.70;2.70;;;;;;5032817;28;20547;-71
2024/03/27 02:49:17;;;;;;;2.10;1.30;;;7.70;2.90;;;;;;5032213;28;20180;-71
2024/03/27 02:51:45;;;;;;;2.70;1.80;;;7.70;1.00;;;;;;5032484;28;20178;-70
2024/03/27 02:54:11;;;;;;;3.40;1.30;;;7.70;1.00;;;;;;5032303;28;20442;-70
2024/03/27 02:56:36;;;;;;;3.87;2.07;;;7.60;2.80;;;;;;5036355;28;20443;-71
2024/03/27 02:59:02;;;;;;;5.30;1.80;;;7.60;3.80;;;;;;5042552;28;20667;-72
2024/03/27 03:01:27;;;;;;;5.93;2.47;;;7.50;4.60;;;;;;5046227;28;20175;-70
2024/03/27 03:03:53;;;;;;;4.60;2.50;;;7.50;1.00;;;;;;5047984;28;20196;-71
2024/03/27 03:06:18;;;;;;;3.57;2.10;;;7.50;1.00;;;;;;5045317;28;20207;-69
2024/03/27 03:08:44;;;;;;;2.47;1.70;;;7.50;1.00;;;;;;5081930;23;20244;-66
2024/03/27 03:11:09;;;;;;;3.83;1.80;;;7.30;1.00;;;;;;5052240;28;20266;-68
2024/03/27 03:13:35;;;;;;;2.70;1.80;;;7.20;1.00;;;;;;5052185;28;20343;-68
2024/03/27 03:16:00;;;;;;;4.40;1.80;;;7.20;2.10;;;;;;5052152;28;20690;-67
2024/03/27 03:18:26;;;;;;;4.87;1.90;;;7.20;4.70;;;;;;5051646;28;20240;-67
2024/03/27 03:21:01;;;;;;;4.23;2.00;;;7.10;4.50;;;;;;5051816;28;20175;-67
2024/03/27 03:23:26;;;;;;;2.47;1.50;;;7.10;1.90;;;;;;5051920;28;20261;-67
2024/03/27 03:25:52;;;;;;;2.77;1.70;;;;;;;;;;5051800;28;21012;-67
2024/03/27 03:28:18;;;;;;;8.10;1.53;;;7.00;1.00;;;;;;5051443;28;20344;-67
2024/03/27 03:30:43;;;;;;;3.73;1.87;;;7.00;1.00;;;;;;5051915;28;20492;-68
2024/03/27 03:33:09;;;;;;;5.10;2.37;;;7.20;1.00;;;;;;5051972;28;20659;-67
2024/03/27 03:35:35;;;;;;;4.00;1.77;;;7.00;1.00;;;;;;5051551;28;20198;-67
2024/03/27 03:38:00;;;;;;;3.47;1.73;;;6.90;1.00;;;;;;5051415;28;20961;-67
2024/03/27 03:40:27;;;;;;;3.83;1.80;;;6.90;1.00;;;;;;5051608;28;20228;-68
2024/03/27 03:42:52;;;;;;;2.50;1.80;;;6.80;1.00;;;;;;5051654;28;20675;-68
2024/03/27 03:45:18;;;;;;;3.00;1.60;;;6.80;1.00;;;;;;5051585;28;20446;-68
2024/03/27 03:47:43;;;;;;;2.97;1.67;;;6.80;1.00;;;;;;5051212;28;20206;-67
2024/03/27 03:50:09;;;;;;;5.70;2.00;;;6.70;1.00;;;;;;5050162;28;20186;-67
2024/03/27 03:52:34;;;;;;;4.60;2.27;;;6.70;1.00;;;;;;5051575;28;20555;-67
2024/03/27 03:55:00;;;;;;;4.67;2.33;;;6.60;1.00;;;;;;5051397;28;20267;-68
2024/03/27 03:57:25;;;;;;;4.47;2.00;;;6.60;1.00;;;;;;5051256;28;20279;-68
2024/03/27 03:59:51;;;;;;;3.00;1.83;;;6.50;1.00;;;;;;5051286;28;20691;-68
2024/03/27 04:02:16;;;;;;;7.67;2.57;;;6.40;2.40;;;;;;5054507;28;20175;-67
2024/03/27 04:04:42;;;;;;;4.00;2.40;;;6.40;4.60;;;;;;5055306;28;20297;-68
2024/03/27 04:07:08;;;;;;;2.40;1.80;;;6.40;8.20;;;;;;5055046;28;20344;-68
2024/03/27 04:09:33;;;;;;;4.40;1.80;;;6.50;7.20;;;;;;5055105;28;20637;-68
2024/03/27 04:11:59;;;;;;;4.73;2.27;;;6.40;8.10;;;;;;5055158;28;20440;-67
2024/03/27 04:14:24;;;;;;;3.20;2.50;;;6.30;9.80;;;;;;5055034;28;20199;-68
2024/03/27 04:16:50;;;;;;;3.63;2.20;;;6.40;8.90;;;;;;5055032;28;20202;-69
2024/03/27 04:19:15;;;;;;;3.53;1.90;;;6.40;9.80;;;;;;5055733;28;20163;-68
2024/03/27 04:21:41;;;;;;;4.00;2.87;;;6.30;10.10;;;;;;5057315;28;20185;-67
2024/03/27 04:24:07;;;;;;;3.13;2.10;;;6.30;10.00;;;;;;5056508;28;20178;-68
2024/03/27 04:26:32;;;;;;;3.47;1.93;;;6.30;9.90;;;;;;5056018;28;20167;-68
2024/03/27 04:28:58;;;;;;;3.83;2.30;;;6.20;9.80;;;;;;5056272;28;20492;-68
2024/03/27 04:31:24;;;;;;;5.03;2.13;;;6.20;10.40;;;;;;5055258;28;20409;-68
2024/03/27 04:33:49;;;;;;;9.07;2.60;;;6.20;10.40;;;;;;5053702;28;20583;-68
2024/03/27 04:36:16;;;;;;;4.57;2.70;;;6.20;9.30;;;;;;5054833;28;20206;-68
2024/03/27 04:38:42;;;;;;;4.53;2.07;;;6.20;10.20;;;;;;5054530;28;20194;-68
2024/03/27 04:41:09;;;;;;;4.20;2.23;;;6.10;10.70;;;;;;5054790;28;20888;-68
2024/03/27 04:43:35;;;;;;;3.30;2.27;;;6.10;10.10;;;;;;5054464;28;20254;-68
2024/03/27 04:46:00;;;;;;;4.53;2.70;;;6.10;11.00;;;;;;5054560;28;20413;-68
2024/03/27 04:48:26;;;;;;;3.30;1.97;;;6.10;10.20;;;;;;5054134;28;20448;-68
2024/03/27 04:50:52;;;;;;;3.90;2.43;;;6.10;10.50;;;;;;5054438;28;20182;-69
2024/03/27 04:53:18;;;;;;;3.63;1.80;;;6.10;11.00;;;;;;5054178;28;20173;-69
2024/03/27 04:55:43;;;;;;;3.90;2.30;;;6.10;8.30;;;;;;5054259;28;20819;-68
2024/03/27 04:58:08;;;;;;;4.47;2.37;;;6.10;9.00;;;;;;5054296;28;20198;-68
2024/03/27 05:00:34;;;;;;;5.50;2.17;;;6.10;8.80;;;;;;5055057;28;20257;-67
2024/03/27 05:03:00;;;;;;;3.47;1.90;;;6.00;8.60;;;;;;5054506;28;20175;-67
2024/03/27 05:05:25;;;;;;;3.43;2.50;;;5.90;10.20;;;;;;5054051;28;20186;-68
2024/03/27 05:07:50;;;;;;;5.17;3.20;;;6.00;10.90;;;;;;5053815;28;20221;-68
2024/03/27 05:10:16;;;;;;;3.80;2.43;;;5.90;7.80;;;;;;5054293;28;20645;-68
2024/03/27 05:12:42;;;;;;;3.13;2.30;;;5.90;9.00;;;;;;5053945;28;20186;-67
2024/03/27 05:15:08;;;;;;;4.73;2.90;;;6.00;11.50;;;;;;5054294;28;20215;-68
2024/03/27 05:17:33;;;;;;;8.10;2.60;;;6.00;11.80;;;;;;5054254;28;20465;-68
2024/03/27 05:19:59;;;;;;;4.47;2.53;;;6.00;8.40;;;;;;5054058;28;20409;-68
2024/03/27 05:22:27;;;;;;;5.73;1.90;;;6.10;9.00;;;;;;5052866;28;20552;-68
2024/03/27 05:24:54;;;;;;;4.30;2.00;;;6.10;8.00;;;;;;5054132;28;20234;-68
2024/03/27 05:27:20;;;;;;;4.63;2.30;;;6.20;8.40;;;;;;5053605;28;20436;-68
2024/03/27 05:29:46;;;;;;;4.83;3.07;;;6.10;8.30;;;;;;5053694;28;20417;-67
2024/03/27 05:32:11;;;;;;;3.10;2.10;;;6.20;8.00;;;;;;5054157;28;20413;-69
2024/03/27 05:34:37;;;;;;;4.13;2.80;;;6.20;8.00;;;;;;5053763;28;20517;-68
2024/03/27 05:37:03;;;;;;;5.40;3.40;;;6.20;8.00;;;;;;5053911;28;20198;-68
2024/03/27 05:39:28;;;;;;;8.50;2.63;;;6.20;8.00;;;;;;5053860;28;20181;-68
2024/03/27 05:41:56;;;;;;;7.13;3.03;;;6.20;8.60;;;;;;5053760;28;20417;-67
2024/03/27 05:44:21;;;;;;;4.73;3.00;;;6.10;9.50;;;;;;5053755;28;20174;-68
2024/03/27 05:46:47;;;;;;;5.37;3.43;;;6.20;9.80;;;;;;5053897;28;20409;-68
2024/03/27 05:49:12;;;;;;;4.37;2.67;;;6.20;9.10;;;;;;5053887;28;20183;-68
2024/03/27 05:51:38;;;;;;;5.43;2.53;;;6.30;10.60;;;;;;5053639;28;20182;-69
2024/03/27 05:54:03;;;;;;;4.13;2.47;;;6.30;9.20;;;;;;5053945;28;20225;-68
2024/03/27 05:56:29;;;;;;;3.70;2.60;;;6.40;12.50;;;;;;5052090;28;20555;-69
2024/03/27 05:58:55;;;;;;;3.90;2.87;;;6.50;10.60;;;;;;5051702;28;20293;-69
2024/03/27 06:01:20;;;;;;;5.60;3.00;;;6.50;10.70;;;;;;5053038;28;20185;-69
2024/03/27 06:03:50;;;;;;;8.60;3.17;;;6.50;10.60;;;;;;5053207;28;20533;-70
2024/03/27 06:06:16;;;;;;;5.57;2.40;;;6.60;10.10;;;;;;5053643;28;20240;-69
2024/03/27 06:08:43;;;;;;;3.97;2.90;;;6.60;10.50;;;;;;5052874;28;20990;-69
2024/03/27 06:11:09;;;;;;;4.67;3.23;;;6.70;10.50;;;;;;5053275;28;20532;-69
2024/03/27 06:13:35;;;;;;;9.13;3.17;;;6.80;10.70;;;;;;5053124;28;20496;-69
2024/03/27 06:16:00;;;;;;;3.43;2.70;;;6.80;6.00;;;;;;5054268;28;20206;-69
2024/03/27 06:18:26;;;;;;;12.53;4.23;;;6.90;11.40;;;;;;5054102;28;20262;-70
2024/03/27 06:20:52;;;;;;;6.20;2.90;;;7.00;10.60;;;;;;5053850;28;20504;-69
2024/03/27 06:23:18;;;;;;;7.80;3.30;;;7.20;8.20;;;;;;5052638;28;20654;-69
2024/03/27 06:25:57;;;;;;;6.10;3.20;;;7.10;5.80;;;;;;5053693;28;20236;-69
2024/03/27 06:28:22;;;;;;;5.20;3.60;;;7.30;9.30;;;;;;5053178;28;20460;-69
2024/03/27 06:30:48;;;;;;;5.70;3.03;;;7.40;12.50;;;;;;5052661;28;20418;-69
2024/03/27 06:33:14;;;;;;;4.20;3.03;;;7.40;10.10;;;;;;5053777;28;20549;-69
2024/03/27 06:35:40;;;;;;;12.97;4.70;;;7.50;4.60;;;;;;5053027;28;20221;-70
2024/03/27 06:38:06;;;;;;;5.90;4.10;;;7.60;4.50;;;;;;5054985;28;20438;-70
2024/03/27 06:40:31;;;;;;;6.83;3.97;;;7.80;4.50;;;;;;5055750;28;20464;-70
2024/03/27 06:42:57;;;;;;;10.00;4.63;;;7.90;1.10;;;;;;5054481;28;20187;-69
2024/03/27 06:45:23;;;;;;;5.23;3.70;;;8.00;4.10;;;;;;5053079;28;20705;-68
2024/03/27 06:47:48;;;;;;;10.23;5.57;;;8.00;1.00;;;;;;5052533;28;20437;-68
2024/03/27 06:50:14;;;;;;;7.40;4.90;;;8.20;1.70;;;;;;5052287;28;20250;-69
2024/03/27 06:52:39;;;;;;;10.43;4.80;;;8.30;3.30;;;;;;5052401;28;20184;-68
2024/03/27 06:55:05;;;;;;;6.90;3.87;;;8.50;2.30;;;;;;5052177;28;20204;-69
2024/03/27 06:57:30;;;;;;;10.20;3.73;;;8.60;4.20;;;;;;5052393;28;20674;-70
2024/03/27 06:59:56;;;;;;;7.00;5.17;;;;;;;;;;5052232;28;20407;-68
2024/03/27 07:02:22;;;;;;;9.03;4.63;;;8.70;4.90;;;;;;5052087;28;20643;-68
2024/03/27 07:04:47;;;;;;;11.77;4.83;;;8.70;6.90;;;;;;5052218;28;20412;-68
2024/03/27 07:07:13;;;;;;;13.13;4.90;;;8.80;12.30;;;;;;5052172;28;20212;-69
2024/03/27 07:09:38;;;;;;;6.80;5.23;;;9.00;5.60;;;;;;5052049;28;20235;-68
2024/03/27 07:12:04;;;;;;;9.67;5.87;;;9.20;8.80;;;;;;5052264;28;20197;-68
2024/03/27 07:14:29;;;;;;;5.90;4.27;;;9.10;9.00;;;;;;5052524;28;20231;-68
2024/03/27 07:16:55;;;;;;;16.17;7.80;;;9.20;9.00;;;;;;5052171;28;20178;-68
2024/03/27 07:19:20;;;;;;;9.97;7.47;;;9.20;9.30;;;;;;5051582;28;20192;-68
2024/03/27 07:21:46;;;;;;;11.13;6.13;;;9.30;10.10;;;;;;5052005;28;20265;-68
2024/03/27 07:24:12;;;;;;;10.60;5.30;;;;;;;;;;5050730;28;20545;-69
2024/03/27 07:26:38;;;;;;;7.10;4.77;;;9.90;1.00;;;;;;5051807;28;20177;-69
2024/03/27 07:29:05;;;;;;;10.27;5.30;;;10.60;1.00;;;;;;5051876;28;20512;-69
2024/03/27 07:31:31;;;;;;;12.33;6.83;;;10.90;1.00;;;;;;5051948;28;20420;-69
2024/03/27 07:33:57;;;;;;;7.57;5.37;;;11.20;1.00;;;;;;5051806;28;20471;-69
2024/03/27 07:36:23;;;;;;;5.60;4.73;;;11.20;1.00;;;;;;5055488;28;20453;-69
2024/03/27 07:38:49;;;;;;;7.87;5.67;;;11.40;1.00;;;;;;5055834;28;20198;-69
2024/03/27 07:41:14;;;;;;;8.00;5.60;;;11.50;1.00;;;;;;5056062;28;20908;-69
2024/03/27 07:43:40;;;;;;;10.23;4.50;;;11.50;1.00;;;;;;5055894;28;20185;-68
2024/03/27 07:46:06;;;;;;;7.47;5.03;;;11.70;1.00;;;;;;5055392;28;20186;-69
2024/03/27 07:48:33;;;;;;;8.67;5.70;;;12.10;1.00;;;;;;5055667;28;20368;-69
2024/03/27 07:50:58;;;;;;;7.37;4.43;;;12.10;1.00;;;;;;5055710;28;20424;-69
2024/03/27 07:53:24;;;;;;;8.37;5.47;;;12.10;1.00;;;;;;5054479;28;20445;-69
2024/03/27 07:55:56;;;;;;;7.30;5.57;;;;;;;;;;5051888;28;20657;-69
2024/03/27 07:58:22;;;;;;;7.17;5.67;;;12.60;1.00;;;;;;5044216;28;20195;-69
2024/03/27 08:00:52;;;;;;;5.60;4.63;;;12.80;1.00;;;;;;5035649;28;21136;-69
2024/03/27 08:03:18;;;;;;;8.43;5.10;;;;;;;;;;5035641;28;20424;-69
2024/03/27 08:05:46;;;;;;;10.10;5.80;;;13.30;1.00;;;;;;5035657;28;20422;-69
2024/03/27 08:08:12;;;;;;;6.83;4.83;;;;;;;;;;5045709;28;20520;-69
2024/03/27 08:10:38;;;;;;;8.00;5.83;;;13.90;1.00;;;;;;5045983;28;20783;-71
2024/03/27 08:13:04;;;;;;;5.30;4.80;;;14.20;1.00;;;;;;5054875;28;20994;-71
2024/03/27 08:15:30;;;;;;;7.70;5.63;;;13.80;1.00;;;;;;5054423;28;20449;-71
2024/03/27 08:17:56;;;;;;;5.67;4.67;;;13.80;1.00;;;;;;5055147;28;20820;-71
2024/03/27 08:20:22;;;;;;;8.40;5.07;;;13.90;1.00;;;;;;5057530;28;20420;-71
2024/03/27 08:22:48;;;;;;;9.20;6.10;;;14.00;1.00;;;;;;5054221;28;20424;-70
2024/03/27 08:25:14;;;;;;;8.10;5.10;;;;;;;;;;5054879;28;20426;-71
2024/03/27 08:27:39;;;;;;;7.63;5.67;;;14.80;1.00;;;;;;5054597;28;20200;-71
2024/03/27 08:30:05;;;;;;;10.20;5.93;;;;;;;;;;5054733;28;20421;-71
2024/03/27 08:32:31;;;;;;;8.70;5.77;;;15.60;3.50;;;;;;5054503;28;20187;-70
2024/03/27 08:34:57;;;;;;;6.17;5.50;;;;;;;;;;5054541;28;20460;-70
2024/03/27 08:37:23;;;;;;;10.70;6.17;;;15.60;1.00;;;;;;5054219;28;20437;-70
2024/03/27 08:39:49;;;;;;;6.93;5.60;;;16.30;1.00;;;;;;5054311;28;20421;-70
2024/03/27 08:42:14;;;;;;;6.23;5.63;;;16.40;1.00;;;;;;5054348;28;20232;-70
2024/03/27 08:44:41;;;;;;;6.93;5.47;;;16.80;1.00;;;;;;5052070;28;20179;-68
2024/03/27 08:47:06;;;;;;;6.77;5.83;;;16.70;1.00;;;;;;5047953;28;20198;-69
2024/03/27 08:49:32;;;;;;;7.07;5.80;;;16.00;1.00;;;;;;5037600;28;20764;-69
2024/03/27 08:51:57;;;;;;;6.90;5.23;;;15.70;1.00;;;;;;5031167;28;20230;-71
2024/03/27 08:54:23;;;;;;;8.17;5.50;;;15.60;1.00;;;;;;5030435;28;20709;-71
2024/03/27 08:56:48;;;;;;;7.90;5.73;;;15.40;1.00;;;;;;5030009;28;20195;-68
2024/03/27 08:59:14;;;;;;;6.07;5.53;;;15.10;1.00;;;;;;5029747;28;20693;-71
2024/03/27 09:01:40;;;;;;;6.13;4.80;;;14.90;1.00;;;;;;5030360;28;20186;-71
2024/03/27 09:04:06;;;;;;;8.80;5.93;;;14.50;1.00;;;;;;5030497;28;20429;-69
2024/03/27 09:06:31;;;;;;;7.80;5.33;;;14.10;1.00;;;;;;5042894;28;20190;-70
2024/03/27 09:08:57;;;;;;;6.47;5.40;;;14.10;1.00;;;;;;5051684;28;20550;-69
2024/03/27 09:11:23;;;;;;;8.53;5.60;;;14.00;1.00;;;;;;5045090;28;20557;-69
2024/03/27 09:13:48;;;;;;;6.70;4.80;;;13.80;1.00;;;;;;5050511;28;20226;-69
2024/03/27 09:16:14;;;;;;;8.07;6.53;;;13.90;1.00;;;;;;5045214;28;20233;-69
2024/03/27 09:18:39;;;;;;;7.60;6.47;;;13.80;1.00;;;;;;5049999;28;20753;-68
2024/03/27 09:21:05;;;;;;;4.80;4.40;;;14.00;1.00;;;;;;5034027;28;20185;-68
2024/03/27 09:23:32;;;;;;;8.50;5.00;;;14.00;1.00;;;;;;5033570;28;20180;-69
2024/03/27 09:25:59;;;;;;;5.50;5.00;;;14.20;1.00;;;;;;5032148;28;20684;-69
2024/03/27 09:28:26;;;;;;;5.63;5.03;;;14.20;1.00;;;;;;5033196;28;20519;-69
2024/03/27 09:30:52;;;;;;;7.27;4.90;;;14.00;1.00;;;;;;5040763;28;20414;-71
2024/03/27 09:33:18;;;;;;;6.83;5.50;;;14.10;1.00;;;;;;5042435;28;20418;-70
2024/03/27 09:35:46;;;;;;;5.90;4.57;;;14.20;1.00;;;;;;5040236;28;20550;-69
2024/03/27 09:38:12;;;;;;;6.57;4.33;;;14.30;1.00;;;;;;5040243;28;20198;-69
2024/03/27 09:40:48;;;;;;;7.50;5.80;;;14.40;1.00;;;;;;5049139;28;20571;-69
2024/03/27 09:43:15;;;;;;;6.73;4.97;;;14.40;1.00;;;;;;5049138;28;20220;-70
2024/03/27 09:45:43;;;;;;;7.07;5.03;;;14.40;1.00;;;;;;5048416;28;20425;-70
2024/03/27 09:48:09;;;;;;;5.43;4.20;;;14.50;1.00;;;;;;5048332;28;20809;-70
2024/03/27 09:50:36;;;;;;;5.73;5.00;;;14.30;1.00;;;;;;5048631;28;20429;-69
2024/03/27 09:53:06;;;;;;;7.30;4.40;;;14.50;1.00;;;;;;5040905;28;20425;-67
2024/03/27 09:55:33;;;;;;;9.17;5.67;;;14.40;1.00;;;;;;5036719;28;20661;-66
2024/03/27 09:58:20;;;;;;;5.30;4.00;;;14.30;1.00;;;;;;5028226;28;20486;-66
2024/03/27 10:00:45;;;;;;;5.47;4.73;;;14.50;1.00;;;;;;5029247;28;20453;-68
2024/03/27 10:03:11;;;;;;;5.43;4.17;;;14.60;1.00;;;;;;5035947;28;20441;-67
2024/03/27 10:05:39;;;;;;;8.53;5.37;;;14.80;1.00;;;;;;5028319;28;20313;-68
2024/03/27 10:08:06;;;;;;;6.37;3.80;;;14.80;1.00;;;;;;5028928;28;20308;-67
2024/03/27 10:10:32;;;;;;;4.77;3.87;;;14.60;1.00;;;;;;5028360;28;20809;-66
2024/03/27 10:13:00;;;;;;;7.67;5.80;;;14.50;1.00;;;;;;5028642;28;20507;-69
2024/03/27 10:15:29;;;;;;;8.73;5.93;;;14.40;1.00;;;;;;5047875;28;20972;-68
2024/03/27 10:17:56;;;;;;;7.43;5.20;;;14.40;1.00;;;;;;5047987;28;20606;-68
2024/03/27 10:20:21;;;;;;;9.00;5.03;;;14.70;1.00;;;;;;5048126;28;20425;-67
2024/03/27 10:22:47;;;;;;;6.30;4.33;;;15.00;1.00;;;;;;5049295;28;20439;-68
2024/03/27 10:25:13;;;;;;;5.90;4.47;;;15.30;1.00;;;;;;5047845;28;20741;-67
2024/03/27 10:27:40;;;;;;;6.40;5.00;;;15.80;1.00;;;;;;5050498;28;20216;-73
2024/03/27 10:30:10;;;;;;;4.80;4.27;;;16.10;1.00;;;;;;5052316;28;20405;-67
2024/03/27 10:32:36;;;;;;;6.50;4.60;;;16.30;1.00;;;;;;5052236;28;20959;-67
2024/03/27 10:35:03;;;;;;;7.73;4.43;;;16.40;1.00;;;;;;5052222;28;20678;-67
2024/03/27 10:37:28;;;;;;;6.43;4.23;;;16.20;1.00;;;;;;5051730;28;20435;-67
2024/03/27 10:40:00;;;;;;;6.20;4.73;;;16.20;1.00;;;;;;5052276;28;20401;-67
2024/03/27 10:42:27;;;;;;;6.87;4.30;;;16.10;1.00;;;;;;5051869;28;20183;-67
2024/03/27 10:44:59;;;;;;;5.73;4.10;;;;;;;;;;5051943;28;20408;-67
2024/03/27 10:47:32;;;;;;;6.80;4.53;;;16.90;1.00;;;;;;5053250;28;20935;-68
2024/03/27 10:49:59;;;;;;;5.37;4.47;;;17.30;1.00;;;;;;5053989;28;20460;-68
2024/03/27 10:52:26;;;;;;;4.70;4.10;;;17.10;1.00;;;;;;5053974;28;20439;-68
2024/03/27 10:54:54;;;;;;;6.47;4.00;;;16.90;1.00;;;;;;5053891;28;20456;-67
2024/03/27 10:57:21;;;;;;;7.67;4.10;;;16.80;1.00;;;;;;5051530;28;20459;-68
2024/03/27 10:59:48;;;;;;;9.50;4.73;;;17.00;1.00;;;;;;5051674;28;20420;-67
2024/03/27 11:02:16;;;;;;;11.83;4.73;;;16.80;1.00;;;;;;5051625;28;20427;-67
2024/03/27 11:04:42;;;;;;;4.77;3.70;;;16.80;1.00;;;;;;5051662;28;20409;-67
2024/03/27 11:07:08;;;;;;;8.13;4.63;;;16.70;1.00;;;;;;5051643;28;20532;-67
2024/03/27 11:09:34;;;;;;;8.63;5.23;;;17.20;1.00;;;;;;5050960;28;20185;-68
2024/03/27 11:12:04;;;;;;;6.70;4.27;;;17.10;1.00;;;;;;5051310;28;20766;-67
2024/03/27 11:14:36;;;;;;;5.70;4.90;;;17.30;1.00;;;;;;5051117;28;20409;-67
2024/03/27 11:17:02;;;;;;;8.73;4.50;;;17.20;1.00;;;;;;5050061;28;20563;-67
2024/03/27 11:19:38;;;;;;;6.70;4.90;;;17.50;1.00;;;;;;5043252;28;20452;-67
2024/03/27 11:22:10;;;;;;;7.13;3.77;;;17.70;1.00;;;;;;5033542;28;20861;-68
2024/03/27 11:24:36;;;;;;;6.70;4.77;;;;;;;;;;5038097;28;20870;-68
2024/03/27 11:27:02;;;;;;;5.77;4.17;;;18.00;1.00;;;;;;5042186;28;20459;-68
2024/03/27 11:29:30;;;;;;;5.53;3.87;;;18.00;1.00;;;;;;5046104;28;20433;-68
2024/03/27 11:32:07;;;;;;;5.60;4.20;;;17.80;1.00;;;;;;5043098;28;20437;-68
2024/03/27 11:34:33;;;;;;;9.13;4.80;;;17.70;1.00;;;;;;5045759;28;20449;-68
2024/03/27 11:36:59;;;;;;;5.30;3.67;;;17.90;1.00;;;;;;5038003;28;20999;-68
2024/03/27 11:39:26;;;;;;;7.40;3.63;;;17.20;1.00;;;;;;5036123;28;20963;-66
2024/03/27 11:41:52;;;;;;;3.30;2.90;;;16.00;1.00;;;;;;5039881;28;20437;-68
2024/03/27 11:44:18;;;;;;;4.70;3.37;;;15.40;1.00;;;;;;5050279;28;20516;-67
2024/03/27 11:46:45;;;;;;;5.30;3.30;;;15.00;1.00;;;;;;5042834;28;20491;-69
2024/03/27 11:49:13;;;;;;;5.60;3.00;;;14.90;1.00;;;;;;5046129;28;20437;-68
2024/03/27 11:51:38;;;;;;;8.80;2.87;;;14.70;1.00;;;;;;5046777;28;20570;-68
2024/03/27 11:54:04;;;;;;;5.37;2.57;;;14.40;1.00;;;;;;5046850;28;20944;-68
2024/03/27 11:56:31;;;;;;;6.47;3.13;;;14.70;1.00;;;;;;5038199;28;20658;-68
2024/03/27 11:58:57;;;;;;;5.30;3.07;;;15.00;1.00;;;;;;5048250;28;20282;-67
2024/03/27 12:01:24;;;;;;;3.80;2.90;;;15.00;1.00;;;;;;5047909;28;20439;-69
2024/03/27 12:03:51;;;;;;;3.63;2.90;;;14.80;1.00;;;;;;5047966;28;20479;-70
2024/03/27 12:06:17;;;;;;;3.50;2.80;;;14.20;1.00;;;;;;5039081;28;20448;-68
2024/03/27 12:08:43;;;;;;;4.27;3.20;;;14.10;1.00;;;;;;5041136;28;20561;-68
2024/03/27 12:11:09;;;;;;;3.40;2.47;;;14.00;1.00;;;;;;5040679;28;20993;-68
2024/03/27 12:13:37;;;;;;;4.70;2.23;;;13.80;1.00;;;;;;5042294;28;20245;-69
2024/03/27 12:16:13;;;;;;;3.33;2.63;;;13.60;1.00;;;;;;5039151;28;20221;-68
2024/03/27 12:18:45;;;;;;;3.13;2.20;;;13.60;1.00;;;;;;5038523;28;20844;-68
2024/03/27 12:21:15;;;;;;;3.10;2.20;;;13.10;1.00;;;;;;5038724;28;20455;-68
2024/03/27 12:23:43;;;;;;;2.70;2.20;;;12.80;1.00;;;;;;5055730;28;20441;-69
2024/03/27 12:26:13;;;;;;;8.90;2.90;;;12.90;1.00;;;;;;5046553;28;20536;-69
2024/03/27 12:28:40;;;;;;;2.80;2.07;;;12.80;1.00;;;;;;5046201;28;20982;-68
2024/03/27 12:31:06;;;;;;;2.90;1.57;;;12.70;1.00;;;;;;5038688;28;20524;-69
2024/03/27 12:33:32;;;;;;;4.53;1.70;;;12.60;1.00;;;;;;5046417;28;20542;-69
2024/03/27 12:35:58;;;;;;;2.90;1.77;;;12.60;1.00;;;;;;5041890;28;20222;-69
2024/03/27 12:38:24;;;;;;;2.73;1.90;;;12.70;1.00;;;;;;5041683;28;20464;-68
2024/03/27 12:40:49;;;;;;;2.87;1.90;;;12.50;1.00;;;;;;5043840;28;20294;-69
2024/03/27 12:43:15;;;;;;;2.00;1.20;;;12.50;1.00;;;;;;5042408;28;20508;-68
2024/03/27 12:45:41;;;;;;;2.77;1.47;;;12.30;1.00;;;;;;5040681;28;20223;-68
2024/03/27 12:48:07;;;;;;;2.53;1.53;;;12.30;1.00;;;;;;5044954;28;20214;-69
2024/03/27 12:50:32;;;;;;;3.07;1.63;;;12.40;1.00;;;;;;5044359;28;20286;-69
2024/03/27 12:52:58;;;;;;;2.33;1.23;;;12.50;1.00;;;;;;5043980;28;20513;-69
2024/03/27 12:55:23;;;;;;;2.10;1.27;;;12.70;1.00;;;;;;5045266;28;20355;-71
2024/03/27 12:57:51;;;;;;;2.33;1.23;;;12.80;1.00;;;;;;5045433;28;20535;-70